sensor_id;sensor_type;location;lat;lon;timestamp;P1;durP1;ratioP1;P2;durP2;ratioP2
77220;SDS011;66217;50.004;8.266;2023-08-06T00:02:07;6.30;;;3.03;;
77220;SDS011;66217;50.004;8.266;2023-08-06T00:04:32;4.55;;;2.70;;
77220;SDS011;66217;50.004;8.266;2023-08-06T00:06:57;5.32;;;2.50;;
77220;SDS011;66217;50.004;8.266;2023-08-06T00:09:23;4.50;;;2.53;;
77220;SDS011;66217;50.004;8.266;2023-08-06T00:11:48;6.95;;;3.92;;
77220;SDS011;66217;50.004;8.266;2023-08-06T00:14:14;9.25;;;4.18;;
77220;SDS011;66217;50.004;8.266;2023-08-06T00:16:43;9.50;;;4.47;;
77220;SDS011;66217;50.004;8.266;2023-08-06T00:19:09;9.20;;;4.93;;
77220;SDS011;66217;50.004;8.266;2023-08-06T00:21:34;9.40;;;4.00;;
77220;SDS011;66217;50.004;8.266;2023-08-06T00:24:00;5.88;;;3.50;;
77220;SDS011;66217;50.004;8.266;2023-08-06T00:26:25;5.28;;;3.30;;
77220;SDS011;66217;50.004;8.266;2023-08-06T00:28:50;5.63;;;3.15;;
77220;SDS011;66217;50.004;8.266;2023-08-06T00:31:16;4.43;;;2.85;;
77220;SDS011;66217;50.004;8.266;2023-08-06T00:33:42;4.57;;;2.97;;
77220;SDS011;66217;50.004;8.266;2023-08-06T00:36:07;5.72;;;3.50;;
77220;SDS011;66217;50.004;8.266;2023-08-06T00:38:33;5.22;;;2.80;;
77220;SDS011;66217;50.004;8.266;2023-08-06T00:40:59;4.75;;;3.10;;
77220;SDS011;66217;50.004;8.266;2023-08-06T00:43:24;7.35;;;3.00;;
77220;SDS011;66217;50.004;8.266;2023-08-06T00:45:50;3.97;;;3.08;;
77220;SDS011;66217;50.004;8.266;2023-08-06T00:48:15;4.60;;;3.10;;
77220;SDS011;66217;50.004;8.266;2023-08-06T00:50:41;7.15;;;3.15;;
77220;SDS011;66217;50.004;8.266;2023-08-06T00:53:07;3.78;;;2.78;;
77220;SDS011;66217;50.004;8.266;2023-08-06T00:55:32;6.70;;;3.00;;
77220;SDS011;66217;50.004;8.266;2023-08-06T00:57:58;7.63;;;3.58;;
77220;SDS011;66217;50.004;8.266;2023-08-06T01:00:24;5.43;;;2.90;;
77220;SDS011;66217;50.004;8.266;2023-08-06T01:02:49;4.57;;;3.10;;
77220;SDS011;66217;50.004;8.266;2023-08-06T01:05:15;9.32;;;3.08;;
77220;SDS011;66217;50.004;8.266;2023-08-06T01:15:52;5.43;;;3.20;;
77220;SDS011;66217;50.004;8.266;2023-08-06T01:18:22;5.07;;;3.10;;
77220;SDS011;66217;50.004;8.266;2023-08-06T01:20:47;6.95;;;2.90;;
77220;SDS011;66217;50.004;8.266;2023-08-06T01:23:15;5.80;;;2.80;;
77220;SDS011;66217;50.004;8.266;2023-08-06T01:25:46;4.43;;;2.78;;
77220;SDS011;66217;50.004;8.266;2023-08-06T01:28:27;4.82;;;2.63;;
77220;SDS011;66217;50.004;8.266;2023-08-06T01:30:57;7.05;;;2.50;;
77220;SDS011;66217;50.004;8.266;2023-08-06T01:33:24;3.72;;;2.53;;
77220;SDS011;66217;50.004;8.266;2023-08-06T01:35:52;4.63;;;2.78;;
77220;SDS011;66217;50.004;8.266;2023-08-06T01:38:19;4.45;;;2.60;;
77220;SDS011;66217;50.004;8.266;2023-08-06T01:40:45;3.70;;;2.45;;
77220;SDS011;66217;50.004;8.266;2023-08-06T01:43:10;3.53;;;2.45;;
77220;SDS011;66217;50.004;8.266;2023-08-06T01:45:36;5.75;;;3.00;;
77220;SDS011;66217;50.004;8.266;2023-08-06T01:48:01;6.95;;;2.78;;
77220;SDS011;66217;50.004;8.266;2023-08-06T01:50:27;4.65;;;2.60;;
77220;SDS011;66217;50.004;8.266;2023-08-06T01:52:52;5.43;;;2.72;;
77220;SDS011;66217;50.004;8.266;2023-08-06T01:55:18;4.28;;;2.50;;
77220;SDS011;66217;50.004;8.266;2023-08-06T01:57:43;9.10;;;2.92;;
77220;SDS011;66217;50.004;8.266;2023-08-06T02:00:09;6.53;;;2.85;;
77220;SDS011;66217;50.004;8.266;2023-08-06T02:02:40;7.30;;;3.10;;
77220;SDS011;66217;50.004;8.266;2023-08-06T02:05:06;4.85;;;2.40;;
77220;SDS011;66217;50.004;8.266;2023-08-06T02:07:31;3.88;;;2.40;;
77220;SDS011;66217;50.004;8.266;2023-08-06T02:09:57;5.93;;;2.50;;
77220;SDS011;66217;50.004;8.266;2023-08-06T02:12:22;3.53;;;2.03;;
77220;SDS011;66217;50.004;8.266;2023-08-06T02:14:48;3.55;;;2.40;;
77220;SDS011;66217;50.004;8.266;2023-08-06T02:17:13;4.50;;;2.50;;
77220;SDS011;66217;50.004;8.266;2023-08-06T02:19:39;6.53;;;2.85;;
77220;SDS011;66217;50.004;8.266;2023-08-06T02:22:04;5.47;;;2.67;;
77220;SDS011;66217;50.004;8.266;2023-08-06T02:24:30;4.03;;;2.47;;
77220;SDS011;66217;50.004;8.266;2023-08-06T02:26:55;4.45;;;2.40;;
77220;SDS011;66217;50.004;8.266;2023-08-06T02:29:21;5.70;;;2.85;;
77220;SDS011;66217;50.004;8.266;2023-08-06T02:31:46;5.45;;;2.75;;
77220;SDS011;66217;50.004;8.266;2023-08-06T02:34:12;5.32;;;2.38;;
77220;SDS011;66217;50.004;8.266;2023-08-06T02:36:37;5.72;;;2.60;;
77220;SDS011;66217;50.004;8.266;2023-08-06T02:39:03;7.63;;;2.50;;
77220;SDS011;66217;50.004;8.266;2023-08-06T02:41:29;3.35;;;2.47;;
77220;SDS011;66217;50.004;8.266;2023-08-06T02:43:56;3.92;;;2.15;;
77220;SDS011;66217;50.004;8.266;2023-08-06T02:46:22;4.10;;;2.28;;
77220;SDS011;66217;50.004;8.266;2023-08-06T02:48:48;3.88;;;2.42;;
77220;SDS011;66217;50.004;8.266;2023-08-06T02:51:14;3.13;;;2.38;;
77220;SDS011;66217;50.004;8.266;2023-08-06T02:53:39;4.53;;;2.40;;
77220;SDS011;66217;50.004;8.266;2023-08-06T02:56:08;3.50;;;2.30;;
77220;SDS011;66217;50.004;8.266;2023-08-06T02:58:49;4.28;;;2.33;;
77220;SDS011;66217;50.004;8.266;2023-08-06T03:04:04;3.97;;;2.50;;
77220;SDS011;66217;50.004;8.266;2023-08-06T03:06:35;5.05;;;2.63;;
77220;SDS011;66217;50.004;8.266;2023-08-06T03:09:01;3.53;;;2.42;;
77220;SDS011;66217;50.004;8.266;2023-08-06T03:11:27;3.63;;;2.33;;
77220;SDS011;66217;50.004;8.266;2023-08-06T03:13:58;3.33;;;2.40;;
77220;SDS011;66217;50.004;8.266;2023-08-06T03:16:23;3.58;;;2.50;;
77220;SDS011;66217;50.004;8.266;2023-08-06T03:18:49;3.75;;;2.50;;
77220;SDS011;66217;50.004;8.266;2023-08-06T03:21:14;4.47;;;2.53;;
77220;SDS011;66217;50.004;8.266;2023-08-06T03:23:40;8.13;;;2.75;;
77220;SDS011;66217;50.004;8.266;2023-08-06T03:26:06;3.70;;;2.60;;
77220;SDS011;66217;50.004;8.266;2023-08-06T03:28:32;4.10;;;2.38;;
